sensor_id;sensor_type;location;lat;lon;timestamp;P1;durP1;ratioP1;P2;durP2;ratioP2
32780;SDS011;19136;47.032;15.502;2023-09-08T00:01:32;13.65;;;6.32;;
32780;SDS011;19136;47.032;15.502;2023-09-08T00:03:58;18.52;;;7.65;;
32780;SDS011;19136;47.032;15.502;2023-09-08T00:06:23;11.43;;;7.28;;
32780;SDS011;19136;47.032;15.502;2023-09-08T00:08:49;11.32;;;6.80;;
32780;SDS011;19136;47.032;15.502;2023-09-08T00:11:14;11.13;;;7.22;;
32780;SDS011;19136;47.032;15.502;2023-09-08T00:13:40;12.20;;;7.40;;
32780;SDS011;19136;47.032;15.502;2023-09-08T00:16:05;11.68;;;6.45;;
32780;SDS011;19136;47.032;15.502;2023-09-08T00:18:32;15.98;;;6.97;;
32780;SDS011;19136;47.032;15.502;2023-09-08T00:20:58;11.60;;;7.10;;
32780;SDS011;19136;47.032;15.502;2023-09-08T00:23:24;9.30;;;6.95;;
32780;SDS011;19136;47.032;15.502;2023-09-08T00:25:49;8.30;;;6.60;;
32780;SDS011;19136;47.032;15.502;2023-09-08T00:28:14;11.52;;;6.43;;
32780;SDS011;19136;47.032;15.502;2023-09-08T00:30:40;9.73;;;6.88;;
32780;SDS011;19136;47.032;15.502;2023-09-08T00:33:05;12.65;;;7.20;;
32780;SDS011;19136;47.032;15.502;2023-09-08T00:35:34;13.68;;;6.78;;
32780;SDS011;19136;47.032;15.502;2023-09-08T00:38:00;9.82;;;6.10;;
32780;SDS011;19136;47.032;15.502;2023-09-08T00:40:26;10.50;;;6.72;;
32780;SDS011;19136;47.032;15.502;2023-09-08T00:42:52;13.38;;;7.15;;
32780;SDS011;19136;47.032;15.502;2023-09-08T00:45:17;12.68;;;6.85;;
32780;SDS011;19136;47.032;15.502;2023-09-08T00:47:43;15.88;;;6.60;;
32780;SDS011;19136;47.032;15.502;2023-09-08T00:50:09;11.40;;;6.55;;
32780;SDS011;19136;47.032;15.502;2023-09-08T00:52:34;10.02;;;6.35;;
32780;SDS011;19136;47.032;15.502;2023-09-08T00:55:00;12.57;;;6.55;;
32780;SDS011;19136;47.032;15.502;2023-09-08T00:57:25;11.93;;;5.95;;
32780;SDS011;19136;47.032;15.502;2023-09-08T00:59:51;10.98;;;7.25;;
32780;SDS011;19136;47.032;15.502;2023-09-08T01:02:17;9.40;;;6.82;;
32780;SDS011;19136;47.032;15.502;2023-09-08T01:04:43;12.57;;;6.70;;
32780;SDS011;19136;47.032;15.502;2023-09-08T01:07:09;9.15;;;6.32;;
32780;SDS011;19136;47.032;15.502;2023-09-08T01:09:35;9.25;;;6.50;;
32780;SDS011;19136;47.032;15.502;2023-09-08T01:12:04;13.98;;;6.78;;
32780;SDS011;19136;47.032;15.502;2023-09-08T01:14:30;10.23;;;6.38;;
32780;SDS011;19136;47.032;15.502;2023-09-08T01:16:56;9.45;;;6.25;;
32780;SDS011;19136;47.032;15.502;2023-09-08T01:19:22;12.00;;;6.90;;
32780;SDS011;19136;47.032;15.502;2023-09-08T01:27:21;16.45;;;7.32;;
32780;SDS011;19136;47.032;15.502;2023-09-08T01:29:48;10.57;;;6.97;;
32780;SDS011;19136;47.032;15.502;2023-09-08T01:32:14;13.45;;;7.15;;
32780;SDS011;19136;47.032;15.502;2023-09-08T01:34:40;10.75;;;6.35;;
32780;SDS011;19136;47.032;15.502;2023-09-08T01:37:06;13.43;;;6.50;;
32780;SDS011;19136;47.032;15.502;2023-09-08T01:39:32;9.10;;;6.15;;
32780;SDS011;19136;47.032;15.502;2023-09-08T01:41:57;8.73;;;5.78;;
32780;SDS011;19136;47.032;15.502;2023-09-08T01:44:23;9.10;;;6.30;;
32780;SDS011;19136;47.032;15.502;2023-09-08T01:46:49;9.20;;;6.30;;
32780;SDS011;19136;47.032;15.502;2023-09-08T01:49:16;9.32;;;6.57;;
32780;SDS011;19136;47.032;15.502;2023-09-08T01:51:42;10.45;;;6.28;;
32780;SDS011;19136;47.032;15.502;2023-09-08T01:54:07;10.63;;;6.63;;
32780;SDS011;19136;47.032;15.502;2023-09-08T01:56:33;13.90;;;7.18;;
32780;SDS011;19136;47.032;15.502;2023-09-08T01:58:58;13.38;;;6.78;;
32780;SDS011;19136;47.032;15.502;2023-09-08T02:01:26;11.68;;;6.70;;
32780;SDS011;19136;47.032;15.502;2023-09-08T02:03:51;9.40;;;6.60;;
32780;SDS011;19136;47.032;15.502;2023-09-08T02:06:17;11.27;;;6.82;;
32780;SDS011;19136;47.032;15.502;2023-09-08T02:08:42;8.10;;;6.18;;
32780;SDS011;19136;47.032;15.502;2023-09-08T02:11:07;10.35;;;6.70;;
32780;SDS011;19136;47.032;15.502;2023-09-08T02:13:33;8.93;;;6.63;;
32780;SDS011;19136;47.032;15.502;2023-09-08T02:15:59;15.65;;;8.45;;
32780;SDS011;19136;47.032;15.502;2023-09-08T02:18:25;11.57;;;7.15;;
32780;SDS011;19136;47.032;15.502;2023-09-08T02:20:51;9.80;;;6.57;;
32780;SDS011;19136;47.032;15.502;2023-09-08T02:23:16;13.80;;;6.80;;
32780;SDS011;19136;47.032;15.502;2023-09-08T02:25:41;8.95;;;6.38;;
32780;SDS011;19136;47.032;15.502;2023-09-08T02:28:07;13.35;;;8.02;;
32780;SDS011;19136;47.032;15.502;2023-09-08T02:30:33;9.40;;;6.70;;
32780;SDS011;19136;47.032;15.502;2023-09-08T02:32:59;10.15;;;6.72;;
32780;SDS011;19136;47.032;15.502;2023-09-08T02:35:25;11.63;;;6.93;;
32780;SDS011;19136;47.032;15.502;2023-09-08T02:37:52;11.00;;;7.30;;
32780;SDS011;19136;47.032;15.502;2023-09-08T02:40:18;13.52;;;6.85;;
32780;SDS011;19136;47.032;15.502;2023-09-08T02:42:46;10.55;;;7.35;;
32780;SDS011;19136;47.032;15.502;2023-09-08T02:45:12;10.30;;;6.50;;
32780;SDS011;19136;47.032;15.502;2023-09-08T02:47:41;10.20;;;6.43;;
32780;SDS011;19136;47.032;15.502;2023-09-08T02:50:07;12.52;;;6.60;;
32780;SDS011;19136;47.032;15.502;2023-09-08T02:52:34;15.30;;;6.97;;
32780;SDS011;19136;47.032;15.502;2023-09-08T02:55:00;13.52;;;6.78;;
32780;SDS011;19136;47.032;15.502;2023-09-08T02:57:25;8.02;;;6.15;;
32780;SDS011;19136;47.032;15.502;2023-09-08T02:59:51;10.75;;;6.15;;
32780;SDS011;19136;47.032;15.502;2023-09-08T03:02:19;12.75;;;7.72;;
32780;SDS011;19136;47.032;15.502;2023-09-08T03:04:45;14.38;;;7.15;;
32780;SDS011;19136;47.032;15.502;2023-09-08T03:07:11;12.02;;;6.50;;
32780;SDS011;19136;47.032;15.502;2023-09-08T03:09:36;13.98;;;6.82;;
32780;SDS011;19136;47.032;15.502;2023-09-08T03:12:02;9.85;;;6.13;;
32780;SDS011;19136;47.032;15.502;2023-09-08T03:14:28;11.98;;;6.32;;
32780;SDS011;19136;47.032;15.502;2023-09-08T03:16:54;13.30;;;7.13;;
32780;SDS011;19136;47.032;15.502;2023-09-08T03:19:20;9.73;;;6.18;;
32780;SDS011;19136;47.032;15.502;2023-09-08T03:21:45;21.63;;;7.45;;
32780;SDS011;19136;47.032;15.502;2023-09-08T03:24:11;11.45;;;6.55;;
32780;SDS011;19136;47.032;15.502;2023-09-08T03:26:36;13.35;;;7.85;;
32780;SDS011;19136;47.032;15.502;2023-09-08T03:29:02;11.90;;;7.00;;
32780;SDS011;19136;47.032;15.502;2023-09-08T03:31:30;11.45;;;6.90;;
32780;SDS011;19136;47.032;15.502;2023-09-08T03:33:56;11.40;;;6.72;;
32780;SDS011;19136;47.032;15.502;2023-09-08T03:36:21;12.68;;;6.70;;
32780;SDS011;19136;47.032;15.502;2023-09-08T03:38:46;10.73;;;6.60;;
32780;SDS011;19136;47.032;15.502;2023-09-08T03:41:13;13.75;;;6.32;;
32780;SDS011;19136;47.032;15.502;2023-09-08T03:43:39;15.73;;;6.70;;
32780;SDS011;19136;47.032;15.502;2023-09-08T03:46:04;14.02;;;6.45;;
32780;SDS011;19136;47.032;15.502;2023-09-08T03:48:30;16.88;;;6.55;;
32780;SDS011;19136;47.032;15.502;2023-09-08T03:50:55;14.80;;;7.00;;
32780;SDS011;19136;47.032;15.502;2023-09-08T03:53:21;12.95;;;7.00;;
32780;SDS011;19136;47.032;15.502;2023-09-08T03:55:46;12.88;;;7.13;;
32780;SDS011;19136;47.032;15.502;2023-09-08T03:58:13;12.50;;;6.50;;
32780;SDS011;19136;47.032;15.502;2023-09-08T04:00:39;11.70;;;7.35;;
32780;SDS011;19136;47.032;15.502;2023-09-08T04:03:04;14.02;;;7.82;;
32780;SDS011;19136;47.032;15.502;2023-09-08T04:05:30;17.13;;;7.45;;
32780;SDS011;19136;47.032;15.502;2023-09-08T04:07:55;14.45;;;7.15;;
32780;SDS011;19136;47.032;15.502;2023-09-08T04:10:21;13.07;;;7.05;;
32780;SDS011;19136;47.032;15.502;2023-09-08T04:12:46;13.82;;;7.30;;
32780;SDS011;19136;47.032;15.502;2023-09-08T04:15:12;11.85;;;6.55;;
32780;SDS011;19136;47.032;15.502;2023-09-08T04:17:38;16.10;;;7.53;;
32780;SDS011;19136;47.032;15.502;2023-09-08T04:20:04;12.18;;;6.72;;
32780;SDS011;19136;47.032;15.502;2023-09-08T04:22:36;13.10;;;6.57;;
32780;SDS011;19136;47.032;15.502;2023-09-08T04:25:01;14.07;;;7.68;;
32780;SDS011;19136;47.032;15.502;2023-09-08T04:27:27;19.02;;;7.53;;
32780;SDS011;19136;47.032;15.502;2023-09-08T04:29:53;17.17;;;7.28;;
32780;SDS011;19136;47.032;15.502;2023-09-08T04:32:18;11.38;;;7.45;;
32780;SDS011;19136;47.032;15.502;2023-09-08T04:34:44;14.20;;;7.60;;
32780;SDS011;19136;47.032;15.502;2023-09-08T04:37:13;23.25;;;8.43;;
32780;SDS011;19136;47.032;15.502;2023-09-08T04:39:39;14.50;;;7.97;;
32780;SDS011;19136;47.032;15.502;2023-09-08T04:42:06;12.90;;;7.68;;
32780;SDS011;19136;47.032;15.502;2023-09-08T04:44:32;15.20;;;7.95;;
32780;SDS011;19136;47.032;15.502;2023-09-08T04:46:58;12.07;;;7.50;;
32780;SDS011;19136;47.032;15.502;2023-09-08T04:49:24;14.25;;;7.13;;
32780;SDS011;19136;47.032;15.502;2023-09-08T04:51:50;15.15;;;6.80;;
32780;SDS011;19136;47.032;15.502;2023-09-08T04:54:18;11.52;;;7.03;;
32780;SDS011;19136;47.032;15.502;2023-09-08T04:56:46;9.43;;;6.60;;
32780;SDS011;19136;47.032;15.502;2023-09-08T04:59:12;14.82;;;6.85;;
32780;SDS011;19136;47.032;15.502;2023-09-08T05:01:38;13.52;;;7.63;;
32780;SDS011;19136;47.032;15.502;2023-09-08T05:04:06;16.90;;;7.45;;
32780;SDS011;19136;47.032;15.502;2023-09-08T05:06:32;20.50;;;8.65;;
32780;SDS011;19136;47.032;15.502;2023-09-08T05:08:58;13.52;;;7.30;;
32780;SDS011;19136;47.032;15.502;2023-09-08T05:11:25;12.82;;;7.88;;
32780;SDS011;19136;47.032;15.502;2023-09-08T05:14:17;14.82;;;8.32;;
32780;SDS011;19136;47.032;15.502;2023-09-08T05:16:43;10.13;;;6.72;;
32780;SDS011;19136;47.032;15.502;2023-09-08T05:19:22;12.73;;;7.38;;
32780;SDS011;19136;47.032;15.502;2023-09-08T05:21:53;16.02;;;7.88;;
32780;SDS011;19136;47.032;15.502;2023-09-08T05:24:37;19.77;;;7.70;;
32780;SDS011;19136;47.032;15.502;2023-09-08T05:27:04;20.52;;;8.50;;
32780;SDS011;19136;47.032;15.502;2023-09-08T05:29:35;10.80;;;7.15;;
32780;SDS011;19136;47.032;15.502;2023-09-08T05:32:01;11.55;;;7.20;;
32780;SDS011;19136;47.032;15.502;2023-09-08T05:34:27;12.82;;;7.45;;
32780;SDS011;19136;47.032;15.502;2023-09-08T05:36:54;9.75;;;7.00;;
32780;SDS011;19136;47.032;15.502;2023-09-08T05:39:21;13.90;;;7.53;;
32780;SDS011;19136;47.032;15.502;2023-09-08T05:41:48;15.18;;;6.95;;
32780;SDS011;19136;47.032;15.502;2023-09-08T05:44:19;13.90;;;7.03;;
32780;SDS011;19136;47.032;15.502;2023-09-08T05:46:55;13.05;;;7.07;;
32780;SDS011;19136;47.032;15.502;2023-09-08T05:49:27;12.60;;;7.65;;
32780;SDS011;19136;47.032;15.502;2023-09-08T05:52:09;13.32;;;7.55;;
32780;SDS011;19136;47.032;15.502;2023-09-08T05:54:37;15.00;;;7.63;;
32780;SDS011;19136;47.032;15.502;2023-09-08T05:57:07;19.23;;;7.38;;
32780;SDS011;19136;47.032;15.502;2023-09-08T05:59:45;13.95;;;7.20;;
32780;SDS011;19136;47.032;15.502;2023-09-08T06:02:11;16.52;;;6.90;;
32780;SDS011;19136;47.032;15.502;2023-09-08T06:04:36;14.73;;;7.43;;
32780;SDS011;19136;47.032;15.502;2023-09-08T06:07:02;14.98;;;7.15;;
32780;SDS011;19136;47.032;15.502;2023-09-08T06:09:30;17.90;;;7.32;;
32780;SDS011;19136;47.032;15.502;2023-09-08T06:11:55;11.38;;;6.82;;
32780;SDS011;19136;47.032;15.502;2023-09-08T06:14:21;13.05;;;6.90;;
32780;SDS011;19136;47.032;15.502;2023-09-08T06:16:48;11.82;;;7.05;;
32780;SDS011;19136;47.032;15.502;2023-09-08T06:19:14;11.25;;;6.43;;
32780;SDS011;19136;47.032;15.502;2023-09-08T06:21:40;13.13;;;7.15;;
32780;SDS011;19136;47.032;15.502;2023-09-08T06:24:05;14.82;;;7.43;;
32780;SDS011;19136;47.032;15.502;2023-09-08T06:26:31;21.45;;;6.75;;
32780;SDS011;19136;47.032;15.502;2023-09-08T06:28:57;18.20;;;7.22;;
32780;SDS011;19136;47.032;15.502;2023-09-08T06:31:23;15.35;;;7.50;;
32780;SDS011;19136;47.032;15.502;2023-09-08T06:33:48;21.85;;;8.18;;
32780;SDS011;19136;47.032;15.502;2023-09-08T06:36:18;15.60;;;6.72;;
32780;SDS011;19136;47.032;15.502;2023-09-08T06:38:46;16.60;;;7.00;;
32780;SDS011;19136;47.032;15.502;2023-09-08T06:41:12;11.23;;;7.07;;
32780;SDS011;19136;47.032;15.502;2023-09-08T06:43:38;14.98;;;7.03;;
32780;SDS011;19136;47.032;15.502;2023-09-08T06:46:09;22.75;;;8.50;;
32780;SDS011;19136;47.032;15.502;2023-09-08T06:48:34;14.90;;;7.10;;
32780;SDS011;19136;47.032;15.502;2023-09-08T06:51:00;17.52;;;6.40;;
32780;SDS011;19136;47.032;15.502;2023-09-08T06:53:26;16.33;;;7.30;;
32780;SDS011;19136;47.032;15.502;2023-09-08T06:55:52;20.02;;;7.05;;
32780;SDS011;19136;47.032;15.502;2023-09-08T06:58:18;18.50;;;7.28;;
32780;SDS011;19136;47.032;15.502;2023-09-08T07:00:43;13.65;;;6.80;;
32780;SDS011;19136;47.032;15.502;2023-09-08T07:03:09;17.80;;;7.13;;
32780;SDS011;19136;47.032;15.502;2023-09-08T07:05:34;21.98;;;7.70;;
32780;SDS011;19136;47.032;15.502;2023-09-08T07:08:01;16.00;;;6.53;;
32780;SDS011;19136;47.032;15.502;2023-09-08T07:10:27;17.10;;;6.28;;
32780;SDS011;19136;47.032;15.502;2023-09-08T07:12:52;18.38;;;6.80;;
32780;SDS011;19136;47.032;15.502;2023-09-08T07:15:18;16.23;;;6.35;;
32780;SDS011;19136;47.032;15.502;2023-09-08T07:17:45;19.58;;;7.05;;
32780;SDS011;19136;47.032;15.502;2023-09-08T07:20:10;15.75;;;7.13;;
32780;SDS011;19136;47.032;15.502;2023-09-08T07:22:36;14.90;;;6.55;;
32780;SDS011;19136;47.032;15.502;2023-09-08T07:25:02;17.63;;;7.15;;
32780;SDS011;19136;47.032;15.502;2023-09-08T07:27:28;17.50;;;7.10;;
32780;SDS011;19136;47.032;15.502;2023-09-08T07:29:53;25.35;;;7.10;;
32780;SDS011;19136;47.032;15.502;2023-09-08T07:32:19;22.27;;;6.68;;
32780;SDS011;19136;47.032;15.502;2023-09-08T07:34:48;16.25;;;6.63;;
32780;SDS011;19136;47.032;15.502;2023-09-08T07:37:21;24.67;;;7.47;;
32780;SDS011;19136;47.032;15.502;2023-09-08T07:39:46;25.42;;;7.18;;
32780;SDS011;19136;47.032;15.502;2023-09-08T07:42:12;19.23;;;7.13;;
32780;SDS011;19136;47.032;15.502;2023-09-08T07:44:37;18.02;;;6.72;;
32780;SDS011;19136;47.032;15.502;2023-09-08T07:47:04;13.73;;;5.70;;
32780;SDS011;19136;47.032;15.502;2023-09-08T07:49:29;15.40;;;6.05;;
32780;SDS011;19136;47.032;15.502;2023-09-08T07:51:54;14.50;;;5.50;;
32780;SDS011;19136;47.032;15.502;2023-09-08T07:54:20;18.85;;;6.13;;
32780;SDS011;19136;47.032;15.502;2023-09-08T07:56:46;14.52;;;6.60;;
32780;SDS011;19136;47.032;15.502;2023-09-08T07:59:12;12.80;;;5.85;;
32780;SDS011;19136;47.032;15.502;2023-09-08T08:01:37;13.13;;;6.35;;
32780;SDS011;19136;47.032;15.502;2023-09-08T08:04:02;12.55;;;6.40;;
32780;SDS011;19136;47.032;15.502;2023-09-08T08:06:29;11.63;;;5.60;;
32780;SDS011;19136;47.032;15.502;2023-09-08T08:08:54;14.57;;;5.72;;
32780;SDS011;19136;47.032;15.502;2023-09-08T08:11:20;15.60;;;5.97;;
32780;SDS011;19136;47.032;15.502;2023-09-08T08:13:45;14.48;;;5.65;;
32780;SDS011;19136;47.032;15.502;2023-09-08T08:16:11;12.77;;;5.20;;
32780;SDS011;19136;47.032;15.502;2023-09-08T08:18:37;14.43;;;6.30;;
32780;SDS011;19136;47.032;15.502;2023-09-08T08:21:02;22.98;;;6.00;;
32780;SDS011;19136;47.032;15.502;2023-09-08T08:23:29;10.82;;;5.72;;
32780;SDS011;19136;47.032;15.502;2023-09-08T08:25:55;15.50;;;6.07;;
32780;SDS011;19136;47.032;15.502;2023-09-08T08:28:20;8.95;;;5.90;;
32780;SDS011;19136;47.032;15.502;2023-09-08T08:30:46;16.33;;;5.45;;
32780;SDS011;19136;47.032;15.502;2023-09-08T08:33:12;13.32;;;5.63;;
32780;SDS011;19136;47.032;15.502;2023-09-08T08:35:38;12.77;;;5.38;;
32780;SDS011;19136;47.032;15.502;2023-09-08T08:38:04;10.65;;;5.18;;
32780;SDS011;19136;47.032;15.502;2023-09-08T08:40:30;12.23;;;5.50;;
32780;SDS011;19136;47.032;15.502;2023-09-08T08:42:56;16.55;;;5.72;;
32780;SDS011;19136;47.032;15.502;2023-09-08T08:45:24;16.73;;;5.03;;
32780;SDS011;19136;47.032;15.502;2023-09-08T08:47:50;9.50;;;4.97;;
32780;SDS011;19136;47.032;15.502;2023-09-08T08:50:16;10.85;;;4.80;;
32780;SDS011;19136;47.032;15.502;2023-09-08T08:52:42;11.63;;;5.05;;
32780;SDS011;19136;47.032;15.502;2023-09-08T08:55:08;16.00;;;5.30;;
32780;SDS011;19136;47.032;15.502;2023-09-08T08:57:34;15.63;;;5.25;;
32780;SDS011;19136;47.032;15.502;2023-09-08T09:00:00;11.07;;;5.00;;
32780;SDS011;19136;47.032;15.502;2023-09-08T09:02:25;6.95;;;4.75;;
32780;SDS011;19136;47.032;15.502;2023-09-08T09:04:53;10.30;;;4.72;;
32780;SDS011;19136;47.032;15.502;2023-09-08T09:07:18;12.85;;;4.72;;
32780;SDS011;19136;47.032;15.502;2023-09-08T09:09:45;10.40;;;4.70;;
32780;SDS011;19136;47.032;15.502;2023-09-08T09:12:11;13.50;;;5.20;;
32780;SDS011;19136;47.032;15.502;2023-09-08T09:14:36;12.45;;;5.15;;
32780;SDS011;19136;47.032;15.502;2023-09-08T09:17:01;16.60;;;4.80;;
32780;SDS011;19136;47.032;15.502;2023-09-08T09:19:29;11.98;;;4.85;;
32780;SDS011;19136;47.032;15.502;2023-09-08T09:21:57;6.88;;;4.78;;
32780;SDS011;19136;47.032;15.502;2023-09-08T09:26:55;10.07;;;4.45;;
32780;SDS011;19136;47.032;15.502;2023-09-08T09:29:22;6.00;;;4.70;;
32780;SDS011;19136;47.032;15.502;2023-09-08T09:31:56;9.02;;;4.38;;
32780;SDS011;19136;47.032;15.502;2023-09-08T09:34:21;8.73;;;4.50;;
32780;SDS011;19136;47.032;15.502;2023-09-08T09:36:51;12.43;;;4.38;;
32780;SDS011;19136;47.032;15.502;2023-09-08T09:39:17;14.43;;;5.40;;
32780;SDS011;19136;47.032;15.502;2023-09-08T09:41:44;12.85;;;5.32;;
32780;SDS011;19136;47.032;15.502;2023-09-08T09:44:09;8.68;;;4.57;;
32780;SDS011;19136;47.032;15.502;2023-09-08T09:46:35;12.07;;;4.43;;
32780;SDS011;19136;47.032;15.502;2023-09-08T09:49:01;11.02;;;4.93;;
32780;SDS011;19136;47.032;15.502;2023-09-08T09:51:26;10.07;;;5.13;;
32780;SDS011;19136;47.032;15.502;2023-09-08T09:53:52;10.30;;;4.63;;
32780;SDS011;19136;47.032;15.502;2023-09-08T09:56:19;8.70;;;4.45;;
32780;SDS011;19136;47.032;15.502;2023-09-08T09:58:45;8.50;;;5.07;;
32780;SDS011;19136;47.032;15.502;2023-09-08T10:01:11;12.98;;;4.68;;
32780;SDS011;19136;47.032;15.502;2023-09-08T10:03:40;8.48;;;4.72;;
32780;SDS011;19136;47.032;15.502;2023-09-08T10:06:05;14.07;;;4.32;;
32780;SDS011;19136;47.032;15.502;2023-09-08T10:08:31;10.52;;;4.60;;
32780;SDS011;19136;47.032;15.502;2023-09-08T10:11:00;11.55;;;4.30;;
32780;SDS011;19136;47.032;15.502;2023-09-08T10:13:27;8.43;;;4.15;;
32780;SDS011;19136;47.032;15.502;2023-09-08T10:15:56;10.98;;;4.68;;
32780;SDS011;19136;47.032;15.502;2023-09-08T10:18:22;14.40;;;4.60;;
32780;SDS011;19136;47.032;15.502;2023-09-08T10:20:49;9.27;;;4.65;;
32780;SDS011;19136;47.032;15.502;2023-09-08T10:23:23;7.55;;;4.75;;
32780;SDS011;19136;47.032;15.502;2023-09-08T10:25:50;9.63;;;4.25;;
32780;SDS011;19136;47.032;15.502;2023-09-08T10:28:21;11.27;;;4.75;;
32780;SDS011;19136;47.032;15.502;2023-09-08T10:30:48;10.57;;;4.40;;
32780;SDS011;19136;47.032;15.502;2023-09-08T10:33:14;11.02;;;4.45;;
32780;SDS011;19136;47.032;15.502;2023-09-08T10:35:40;10.98;;;4.28;;
32780;SDS011;19136;47.032;15.502;2023-09-08T10:38:27;8.57;;;4.38;;
32780;SDS011;19136;47.032;15.502;2023-09-08T10:40:53;11.45;;;4.88;;
32780;SDS011;19136;47.032;15.502;2023-09-08T10:43:19;9.45;;;4.32;;
32780;SDS011;19136;47.032;15.502;2023-09-08T10:45:45;12.55;;;4.32;;
32780;SDS011;19136;47.032;15.502;2023-09-08T10:48:11;8.52;;;4.53;;
32780;SDS011;19136;47.032;15.502;2023-09-08T10:50:39;7.88;;;4.03;;
32780;SDS011;19136;47.032;15.502;2023-09-08T10:53:07;8.68;;;4.35;;
32780;SDS011;19136;47.032;15.502;2023-09-08T10:55:49;5.75;;;3.92;;
32780;SDS011;19136;47.032;15.502;2023-09-08T10:58:31;6.03;;;4.22;;
32780;SDS011;19136;47.032;15.502;2023-09-08T11:01:02;9.63;;;4.38;;
32780;SDS011;19136;47.032;15.502;2023-09-08T11:06:05;9.40;;;3.95;;
32780;SDS011;19136;47.032;15.502;2023-09-08T11:08:32;8.68;;;4.18;;
32780;SDS011;19136;47.032;15.502;2023-09-08T11:10:58;11.10;;;4.05;;
32780;SDS011;19136;47.032;15.502;2023-09-08T11:13:23;9.32;;;4.40;;
32780;SDS011;19136;47.032;15.502;2023-09-08T11:15:52;6.72;;;4.10;;
32780;SDS011;19136;47.032;15.502;2023-09-08T11:18:36;10.98;;;4.20;;
32780;SDS011;19136;47.032;15.502;2023-09-08T11:21:03;7.50;;;4.18;;
32780;SDS011;19136;47.032;15.502;2023-09-08T11:23:28;10.70;;;3.97;;
32780;SDS011;19136;47.032;15.502;2023-09-08T11:25:54;6.38;;;3.88;;
32780;SDS011;19136;47.032;15.502;2023-09-08T11:28:23;8.45;;;4.30;;
32780;SDS011;19136;47.032;15.502;2023-09-08T11:30:49;8.55;;;3.92;;
32780;SDS011;19136;47.032;15.502;2023-09-08T11:33:18;7.47;;;4.03;;
32780;SDS011;19136;47.032;15.502;2023-09-08T11:35:46;9.82;;;4.15;;
32780;SDS011;19136;47.032;15.502;2023-09-08T11:38:12;6.80;;;4.28;;
32780;SDS011;19136;47.032;15.502;2023-09-08T11:40:38;7.68;;;4.40;;
32780;SDS011;19136;47.032;15.502;2023-09-08T11:43:03;10.07;;;3.63;;
32780;SDS011;19136;47.032;15.502;2023-09-08T11:45:30;7.18;;;3.83;;
32780;SDS011;19136;47.032;15.502;2023-09-08T11:47:55;13.05;;;4.22;;
32780;SDS011;19136;47.032;15.502;2023-09-08T11:50:21;7.57;;;3.90;;
32780;SDS011;19136;47.032;15.502;2023-09-08T11:52:49;5.78;;;4.10;;
32780;SDS011;19136;47.032;15.502;2023-09-08T11:55:15;7.07;;;3.72;;
32780;SDS011;19136;47.032;15.502;2023-09-08T11:57:41;12.23;;;3.92;;
32780;SDS011;19136;47.032;15.502;2023-09-08T12:00:06;9.85;;;4.18;;
32780;SDS011;19136;47.032;15.502;2023-09-08T12:02:35;8.50;;;4.10;;
32780;SDS011;19136;47.032;15.502;2023-09-08T12:05:01;5.82;;;3.85;;
32780;SDS011;19136;47.032;15.502;2023-09-08T12:07:26;10.57;;;4.05;;
32780;SDS011;19136;47.032;15.502;2023-09-08T12:09:52;9.55;;;4.22;;
32780;SDS011;19136;47.032;15.502;2023-09-08T12:12:17;6.90;;;3.38;;
32780;SDS011;19136;47.032;15.502;2023-09-08T12:14:43;12.63;;;4.45;;
32780;SDS011;19136;47.032;15.502;2023-09-08T12:17:08;9.02;;;3.97;;
32780;SDS011;19136;47.032;15.502;2023-09-08T12:19:34;11.82;;;4.15;;
32780;SDS011;19136;47.032;15.502;2023-09-08T12:22:02;8.88;;;3.85;;
32780;SDS011;19136;47.032;15.502;2023-09-08T12:27:15;6.57;;;3.80;;
32780;SDS011;19136;47.032;15.502;2023-09-08T12:29:42;7.28;;;3.70;;
32780;SDS011;19136;47.032;15.502;2023-09-08T12:32:08;10.52;;;4.00;;
32780;SDS011;19136;47.032;15.502;2023-09-08T12:34:34;8.90;;;4.00;;
32780;SDS011;19136;47.032;15.502;2023-09-08T12:36:59;11.27;;;3.60;;
32780;SDS011;19136;47.032;15.502;2023-09-08T12:39:25;5.15;;;3.50;;
32780;SDS011;19136;47.032;15.502;2023-09-08T12:41:51;13.07;;;3.80;;
32780;SDS011;19136;47.032;15.502;2023-09-08T12:44:16;8.63;;;3.97;;
32780;SDS011;19136;47.032;15.502;2023-09-08T12:46:41;10.10;;;4.13;;
32780;SDS011;19136;47.032;15.502;2023-09-08T12:49:07;6.30;;;3.92;;
32780;SDS011;19136;47.032;15.502;2023-09-08T12:51:32;7.30;;;4.15;;
32780;SDS011;19136;47.032;15.502;2023-09-08T12:53:58;8.48;;;3.88;;
32780;SDS011;19136;47.032;15.502;2023-09-08T12:56:23;5.72;;;3.80;;
32780;SDS011;19136;47.032;15.502;2023-09-08T12:58:50;7.45;;;4.30;;
32780;SDS011;19136;47.032;15.502;2023-09-08T13:01:16;6.72;;;4.43;;
32780;SDS011;19136;47.032;15.502;2023-09-08T13:03:41;8.02;;;4.32;;
32780;SDS011;19136;47.032;15.502;2023-09-08T13:06:07;11.30;;;3.60;;
32780;SDS011;19136;47.032;15.502;2023-09-08T13:08:33;8.95;;;4.00;;
32780;SDS011;19136;47.032;15.502;2023-09-08T13:10:58;6.32;;;3.50;;
32780;SDS011;19136;47.032;15.502;2023-09-08T13:13:24;6.75;;;3.92;;
32780;SDS011;19136;47.032;15.502;2023-09-08T13:15:50;4.95;;;3.40;;
32780;SDS011;19136;47.032;15.502;2023-09-08T13:18:16;6.25;;;3.70;;
32780;SDS011;19136;47.032;15.502;2023-09-08T13:20:41;7.15;;;3.83;;
32780;SDS011;19136;47.032;15.502;2023-09-08T13:23:07;7.10;;;4.30;;
32780;SDS011;19136;47.032;15.502;2023-09-08T13:25:33;8.95;;;3.90;;
32780;SDS011;19136;47.032;15.502;2023-09-08T13:27:59;9.77;;;3.22;;
32780;SDS011;19136;47.032;15.502;2023-09-08T13:30:24;10.38;;;3.65;;
32780;SDS011;19136;47.032;15.502;2023-09-08T13:32:52;8.80;;;3.90;;
32780;SDS011;19136;47.032;15.502;2023-09-08T13:35:18;9.23;;;4.05;;
32780;SDS011;19136;47.032;15.502;2023-09-08T13:37:44;9.38;;;4.15;;
32780;SDS011;19136;47.032;15.502;2023-09-08T13:40:10;5.53;;;3.55;;
32780;SDS011;19136;47.032;15.502;2023-09-08T13:42:36;6.15;;;3.58;;
32780;SDS011;19136;47.032;15.502;2023-09-08T13:45:02;10.18;;;3.90;;
32780;SDS011;19136;47.032;15.502;2023-09-08T13:47:28;7.65;;;3.53;;
32780;SDS011;19136;47.032;15.502;2023-09-08T13:49:54;7.68;;;3.65;;
32780;SDS011;19136;47.032;15.502;2023-09-08T13:52:20;12.35;;;3.97;;
32780;SDS011;19136;47.032;15.502;2023-09-08T13:54:45;6.68;;;3.45;;
32780;SDS011;19136;47.032;15.502;2023-09-08T13:57:11;10.50;;;3.40;;
32780;SDS011;19136;47.032;15.502;2023-09-08T13:59:37;9.18;;;4.38;;
32780;SDS011;19136;47.032;15.502;2023-09-08T14:02:03;9.93;;;4.40;;
32780;SDS011;19136;47.032;15.502;2023-09-08T14:04:29;5.50;;;3.88;;
32780;SDS011;19136;47.032;15.502;2023-09-08T14:06:55;6.63;;;4.00;;
32780;SDS011;19136;47.032;15.502;2023-09-08T14:09:21;8.10;;;3.85;;
32780;SDS011;19136;47.032;15.502;2023-09-08T14:11:47;7.78;;;3.80;;
32780;SDS011;19136;47.032;15.502;2023-09-08T14:14:13;9.57;;;4.82;;
32780;SDS011;19136;47.032;15.502;2023-09-08T14:16:39;5.68;;;4.05;;
32780;SDS011;19136;47.032;15.502;2023-09-08T14:19:05;6.78;;;3.92;;
32780;SDS011;19136;47.032;15.502;2023-09-08T14:21:31;6.00;;;4.53;;
32780;SDS011;19136;47.032;15.502;2023-09-08T14:23:58;10.88;;;4.35;;
32780;SDS011;19136;47.032;15.502;2023-09-08T14:26:24;13.85;;;4.30;;
32780;SDS011;19136;47.032;15.502;2023-09-08T14:28:50;5.78;;;4.15;;
32780;SDS011;19136;47.032;15.502;2023-09-08T14:31:16;6.70;;;4.03;;
32780;SDS011;19136;47.032;15.502;2023-09-08T14:33:42;12.38;;;3.85;;
32780;SDS011;19136;47.032;15.502;2023-09-08T14:36:08;6.68;;;4.13;;